Time;durP1;ratioP1;P1;durP2;ratioP2;P2;SDS_P1;SDS_P2;PMS_P1;PMS_P2;Temp;Humidity;BMP_temperature;BMP_pressure;BME280_temperature;BME280_humidity;BME280_pressure;Samples;Min_cycle;Max_cycle;Signal;HPM_P1;HPM_P2
2021/07/11 00:00:23;;;;;;;19.77;10.07;;;;;;;21.44;67.51;100469.17;126319;1099;104252;-79
2021/07/11 00:03:13;;;;;;;20.30;9.60;;;;;;;21.40;66.83;100471.88;126211;1099;104150;-80
2021/07/11 00:05:44;;;;;;;19.93;9.67;;;;;;;21.36;67.28;100474.58;126368;1099;104216;-79
2021/07/11 00:08:14;;;;;;;18.27;10.17;;;;;;;21.32;67.48;100480.83;126318;1099;104226;-80
2021/07/11 00:10:45;;;;;;;18.80;9.53;;;;;;;21.30;67.48;100477.30;126334;1099;104149;-77
2021/07/11 00:13:16;;;;;;;20.00;9.23;;;;;;;21.28;67.03;100478.20;126258;1099;104165;-81
2021/07/11 00:15:46;;;;;;;17.97;9.23;;;;;;;21.26;68.57;100472.88;126336;1098;104140;-80
2021/07/11 00:18:17;;;;;;;25.87;10.10;;;;;;;21.26;68.70;100472.00;126326;1099;104243;-79
2021/07/11 00:20:48;;;;;;;25.30;9.47;;;;;;;21.24;67.87;100469.35;126331;1099;104313;-78
2021/07/11 00:23:18;;;;;;;17.43;9.80;;;;;;;21.24;67.96;100468.45;126294;1099;104140;-79
2021/07/11 00:25:49;;;;;;;20.03;10.07;;;;;;;21.22;68.26;100465.79;126332;1099;104117;-79
2021/07/11 00:28:20;;;;;;;19.07;9.70;;;;;;;21.20;68.43;100462.26;126303;1099;104162;-80
2021/07/11 00:30:50;;;;;;;20.25;9.40;;;;;;;21.18;68.51;100470.27;126333;1099;104204;-80
2021/07/11 00:33:21;;;;;;;20.63;10.27;;;;;;;21.18;68.20;100470.27;126307;1099;104297;-78
2021/07/11 00:35:51;;;;;;;18.97;9.50;;;;;;;21.18;68.11;100462.27;126303;1099;104143;-80
2021/07/11 00:38:22;;;;;;;18.00;8.63;;;;;;;21.19;67.85;100461.39;126332;1099;104133;-79
2021/07/11 00:40:54;;;;;;;22.83;9.80;;;;;;;21.18;68.12;100458.73;126349;1099;104242;-79
2021/07/11 00:43:25;;;;;;;21.73;10.70;;;;;;;21.14;69.39;100455.18;126294;1099;104231;-81
2021/07/11 00:45:57;;;;;;;21.57;9.93;;;;;;;21.11;68.72;100463.20;126360;1098;104554;-80
2021/07/11 00:48:27;;;;;;;19.57;10.53;;;;;;;21.08;68.24;100457.02;126309;1099;104160;-80
2021/07/11 00:50:58;;;;;;;18.43;10.37;;;;;;;21.05;68.40;100455.29;126347;1099;104258;-79
2021/07/11 00:53:29;;;;;;;22.90;9.90;;;;;;;21.01;68.93;100466.87;126341;1099;104316;-79
2021/07/11 00:56:01;;;;;;;20.63;10.80;;;;;;;20.98;69.48;100464.22;126303;1099;104294;-80
2021/07/11 00:58:33;;;;;;;21.60;10.27;;;;;;;20.93;69.67;100468.72;126270;1099;104319;-79
2021/07/11 01:01:05;;;;;;;19.33;9.23;;;;;;;20.88;70.05;100466.08;126367;1099;104191;-81
2021/07/11 01:03:40;;;;;;;21.90;9.97;;;;;;;20.87;69.76;100458.09;126232;1099;104296;-79
2021/07/11 01:06:17;;;;;;;25.23;9.13;;;;;;;20.86;69.40;100459.85;126384;1099;104184;-81
2021/07/11 01:08:55;;;;;;;20.05;9.23;;;;;;;20.83;70.29;100466.11;126398;1099;104149;-79
2021/07/11 01:11:28;;;;;;;19.47;9.73;;;;;;;20.83;69.91;100466.11;126342;1099;104149;-78
2021/07/11 01:14:01;;;;;;;22.05;9.35;;;;;;;20.82;70.34;100466.12;126313;1099;104259;-79
2021/07/11 01:16:34;;;;;;;22.17;9.93;;;;;;;20.81;69.97;100469.68;126312;1099;104181;-81
2021/07/11 01:19:25;;;;;;;19.77;9.43;;;;;;;20.80;70.46;100468.80;126351;1099;104162;-81
2021/07/11 01:22:00;;;;;;;21.33;9.53;;;;;;;20.78;70.42;100472.36;126349;1099;104179;-79
2021/07/11 01:24:41;;;;;;;21.20;9.83;;;;;;;20.75;70.44;100470.59;126208;1099;104306;-79
2021/07/11 01:27:12;;;;;;;18.27;9.03;;;;;;;20.74;69.74;100471.51;126326;1099;104233;-78
2021/07/11 01:29:45;;;;;;;19.67;9.60;;;;;;;20.73;70.45;100474.19;126356;1099;104168;-79
2021/07/11 01:32:17;;;;;;;20.03;9.20;;;;;;;20.73;70.06;100464.39;126342;1099;104245;-80
2021/07/11 01:34:50;;;;;;;15.85;8.80;;;;;;;20.76;69.51;100461.70;126306;1099;104143;-80
2021/07/11 01:37:21;;;;;;;19.50;10.00;;;;;;;20.79;70.00;100467.02;126337;1099;104251;-80
2021/07/11 01:39:52;;;;;;;18.10;9.70;;;;;;;20.81;69.83;100461.67;126346;1099;104137;-79
2021/07/11 01:42:24;;;;;;;19.47;9.80;;;;;;;20.81;70.64;100459.89;126359;1099;104162;-79
2021/07/11 01:44:55;;;;;;;19.50;10.03;;;;;;;20.81;70.12;100456.34;126286;1099;104622;-80
2021/07/11 01:47:28;;;;;;;19.77;9.80;;;;;;;20.79;69.61;100456.36;126338;1099;104176;-79
2021/07/11 01:50:00;;;;;;;18.43;9.53;;;;;;;20.79;70.20;100451.02;126298;1099;104210;-80
2021/07/11 01:52:31;;;;;;;20.50;9.90;;;;;;;20.79;70.21;100459.02;126328;1099;104185;-79
2021/07/11 01:55:04;;;;;;;19.37;9.20;;;;;;;20.79;69.56;100463.48;126287;1099;105267;-78
2021/07/11 01:57:37;;;;;;;17.20;8.38;;;;;;;20.78;70.42;100454.57;126375;1099;104173;-80
2021/07/11 02:00:12;;;;;;;20.43;9.60;;;;;;;20.77;70.37;100450.16;126347;1099;104144;-80
2021/07/11 02:02:54;;;;;;;18.80;9.10;;;;;;;20.75;70.24;100459.05;126317;1099;104146;-79
2021/07/11 02:05:39;;;;;;;18.10;9.40;;;;;;;20.73;70.58;100455.52;126274;1099;104281;-80
2021/07/11 02:08:11;;;;;;;21.60;9.93;;;;;;;20.72;69.80;100457.28;126371;1099;104171;-81
2021/07/11 02:10:44;;;;;;;19.00;10.23;;;;;;;20.70;69.83;100464.41;126358;1098;104152;-80
2021/07/11 02:13:28;;;;;;;24.40;10.50;;;;;;;20.68;70.54;100458.22;126374;1099;104137;-79
2021/07/11 02:16:07;;;;;;;20.70;9.63;;;;;;;20.66;70.47;100457.31;126263;1099;107934;-80
2021/07/11 02:18:41;;;;;;;19.80;10.13;;;;;;;20.66;69.69;100465.31;126316;1099;104172;-80
2021/07/11 02:21:22;;;;;;;22.00;9.83;;;;;;;20.67;70.71;100467.09;126324;1099;104189;-80
2021/07/11 02:23:58;;;;;;;17.60;8.70;;;;;;;20.68;70.73;100471.55;126355;1099;104143;-80
2021/07/11 02:26:31;;;;;;;19.07;9.07;;;;;;;20.67;70.13;100464.44;126319;1099;118939;-79
2021/07/11 02:29:03;;;;;;;20.17;9.33;;;;;;;20.65;70.62;100466.23;126312;1099;104216;-79
2021/07/11 02:31:40;;;;;;;19.55;9.10;;;;;;;20.61;70.25;100475.10;126298;1099;104191;-80
2021/07/11 02:34:13;;;;;;;20.00;9.20;;;;;;;20.58;70.20;100475.12;126295;1099;104455;-79
2021/07/11 02:36:48;;;;;;;19.37;9.17;;;;;;;20.57;69.97;100468.00;126354;1099;104140;-80
2021/07/11 02:39:21;;;;;;;17.17;9.77;;;;;;;20.57;71.07;100470.67;126349;1099;104695;-80
2021/07/11 02:42:00;;;;;;;17.97;10.13;;;;;;;20.52;70.67;100469.82;126314;1099;104246;-81
2021/07/11 02:44:32;;;;;;;21.77;9.87;;;;;;;20.48;71.07;100471.63;126309;1099;104181;-80
2021/07/11 02:47:08;;;;;;;21.73;10.03;;;;;;;20.45;71.15;100488.51;126349;1099;104150;-79
2021/07/11 02:49:43;;;;;;;18.63;9.20;;;;;;;20.42;70.29;100480.53;126304;1099;104213;-79
2021/07/11 02:52:18;;;;;;;15.53;9.10;;;;;;;20.40;70.51;100481.45;126338;1099;104111;-80
2021/07/11 02:54:54;;;;;;;18.05;9.63;;;;;;;20.39;71.52;100491.20;126318;1099;104158;-79
2021/07/11 02:57:28;;;;;;;22.53;10.00;;;;;;;20.46;71.21;100486.75;126347;1099;104229;-79
2021/07/11 03:00:01;;;;;;;17.53;8.77;;;;;;;20.46;71.08;100484.96;126344;1099;104143;-81
2021/07/11 03:02:37;;;;;;;16.57;8.50;;;;;;;20.43;71.96;100490.31;126345;1099;104142;-78
2021/07/11 03:05:11;;;;;;;18.57;8.70;;;;;;;20.39;71.70;100495.66;126236;1098;104169;-80
2021/07/11 03:07:42;;;;;;;20.73;9.10;;;;;;;20.35;71.52;100497.47;126150;1098;104207;-79
2021/07/11 03:10:17;;;;;;;20.37;9.17;;;;;;;20.35;71.18;100494.80;126342;1099;104172;-79
2021/07/11 03:12:52;;;;;;;18.90;9.33;;;;;;;20.35;72.05;100491.22;126336;1099;104172;-80
2021/07/11 03:15:25;;;;;;;20.30;9.10;;;;;;;20.36;71.02;100493.88;125343;1099;104288;-80
2021/07/11 03:17:59;;;;;;;18.87;8.73;;;;;;;20.37;71.11;100487.67;125281;1099;104309;-80
2021/07/11 03:20:31;;;;;;;17.10;8.80;;;;;;;20.39;71.49;100487.66;126213;1099;104176;-79
2021/07/11 03:23:04;;;;;;;15.07;8.23;;;;;;;20.40;72.12;100484.99;125316;1099;104373;-80
2021/07/11 03:25:34;;;;;;;16.90;9.57;;;;;;;20.42;71.01;100488.53;125261;1099;104197;-79
2021/07/11 03:28:07;;;;;;;16.33;8.67;;;;;;;20.45;72.16;100498.30;125316;1099;104319;-80
2021/07/11 03:30:43;;;;;;;17.83;9.33;;;;;;;20.47;71.68;100491.17;125319;1099;104152;-80
2021/07/11 03:33:16;;;;;;;17.27;8.90;;;;;;;20.51;71.75;100492.06;125280;1099;104508;-80
2021/07/11 03:35:49;;;;;;;18.32;8.40;;;;;;;20.57;71.74;100491.99;125360;1099;104290;-80
2021/07/11 03:38:26;;;;;;;17.07;9.37;;;;;;;20.62;71.88;100487.55;125300;1099;101865;-80
2021/07/11 03:40:57;;;;;;;22.90;10.67;;;;;;;20.62;72.15;100491.09;125448;1099;104249;-79
2021/07/11 03:43:33;;;;;;;20.03;9.43;;;;;;;20.61;71.48;100494.63;125422;1099;104329;-80
2021/07/11 03:46:14;;;;;;;16.27;8.40;;;;;;;20.61;71.37;100507.09;125250;1099;104303;-80
2021/07/11 03:48:54;;;;;;;19.77;9.33;;;;;;;20.62;72.35;100491.09;126306;1099;104269;-79
2021/07/11 03:51:28;;;;;;;18.53;8.50;;;;;;;20.69;72.18;100483.09;126321;1099;104149;-79
2021/07/11 03:54:00;;;;;;;21.37;9.60;;;;;;;20.73;72.12;100487.52;126280;1099;104259;-80
2021/07/11 03:56:35;;;;;;;21.53;9.40;;;;;;;20.75;71.22;100486.59;126322;1097;104141;-80
2021/07/11 03:59:10;;;;;;;21.13;9.07;;;;;;;20.78;71.84;100486.57;126314;1099;104143;-79
2021/07/11 04:01:43;;;;;;;21.27;8.87;;;;;;;20.82;71.99;100492.80;126351;1098;104147;-79
2021/07/11 04:04:19;;;;;;;18.87;8.80;;;;;;;20.81;72.15;100491.88;126335;1099;104146;-80
2021/07/11 04:06:53;;;;;;;16.80;8.63;;;;;;;20.83;71.93;100487.45;126312;1099;104162;-81
2021/07/11 04:09:26;;;;;;;19.42;8.78;;;;;;;20.85;72.40;100482.11;126364;1099;104194;-81
2021/07/11 04:11:56;;;;;;;21.57;9.83;;;;;;;20.87;72.20;100490.09;126354;1099;104268;-79
2021/07/11 04:14:29;;;;;;;18.33;9.13;;;;;;;20.87;71.75;100495.43;126361;1099;104178;-81
2021/07/11 04:17:03;;;;;;;18.77;9.80;;;;;;;20.88;71.35;100492.75;126294;1099;104149;-80
2021/07/11 04:19:39;;;;;;;20.47;9.80;;;;;;;20.90;71.41;100500.74;126278;1099;104216;-80
2021/07/11 04:22:14;;;;;;;18.57;9.73;;;;;;;20.95;71.44;100486.45;126340;1098;104165;-80
2021/07/11 04:24:47;;;;;;;17.13;9.20;;;;;;;21.01;71.02;100498.88;126308;1099;104290;-79
2021/07/11 04:27:18;;;;;;;22.93;9.40;;;;;;;21.06;70.97;100496.17;126340;1099;104143;-79
2021/07/11 04:29:51;;;;;;;18.33;9.20;;;;;;;21.11;71.85;100491.69;126343;1099;104204;-81
2021/07/11 04:32:22;;;;;;;17.90;8.87;;;;;;;21.17;71.66;100491.63;126385;1099;104149;-80
2021/07/11 04:34:52;;;;;;;19.47;9.07;;;;;;;21.26;71.49;100490.69;126375;1099;104214;-79
2021/07/11 04:37:23;;;;;;;18.30;8.70;;;;;;;21.35;71.75;100496.82;126232;1099;104143;-81
2021/07/11 04:39:54;;;;;;;21.33;9.13;;;;;;;21.45;71.13;100499.41;126377;1099;104146;-81
2021/07/11 04:42:24;;;;;;;19.43;9.13;;;;;;;21.53;71.68;100493.14;126352;1098;104134;-81
2021/07/11 04:44:55;;;;;;;21.17;9.40;;;;;;;21.65;71.22;100493.91;126331;1099;105263;-79
2021/07/11 04:47:26;;;;;;;18.63;9.17;;;;;;;21.73;71.36;100492.05;126315;1098;104201;-80
2021/07/11 04:49:56;;;;;;;19.00;9.00;;;;;;;21.86;70.97;100491.02;126344;1099;104153;-80
2021/07/11 04:52:28;;;;;;;20.47;9.20;;;;;;;22.03;70.52;100492.60;126360;1099;104205;-80
2021/07/11 04:54:58;;;;;;;18.57;9.47;;;;;;;22.16;70.95;100491.56;126350;1099;104169;-80
2021/07/11 04:57:29;;;;;;;25.57;9.93;;;;;;;22.25;70.42;100495.89;126380;1099;104177;-79
2021/07/11 05:00:00;;;;;;;19.20;9.43;;;;;;;22.29;70.66;100496.77;126371;1099;104264;-79
2021/07/11 05:02:30;;;;;;;18.63;9.43;;;;;;;22.34;70.28;100500.28;126322;1098;104139;-79
2021/07/11 05:05:01;;;;;;;24.30;10.20;;;;;;;22.43;70.21;100502.84;126356;1099;104178;-80
2021/07/11 05:07:32;;;;;;;21.80;9.77;;;;;;;22.49;70.68;100497.41;126302;1099;104239;-80
2021/07/11 05:10:03;;;;;;;20.83;9.17;;;;;;;22.55;69.77;100493.78;126374;1099;104140;-80
2021/07/11 05:12:35;;;;;;;19.47;9.73;;;;;;;22.66;70.34;100496.27;125436;1099;104752;-79
2021/07/11 05:15:07;;;;;;;17.23;8.90;;;;;;;22.74;70.02;100492.59;126321;1099;104137;-79
2021/07/11 05:17:38;;;;;;;18.40;8.73;;;;;;;22.85;70.14;100491.56;126322;1099;104248;-81
2021/07/11 05:20:10;;;;;;;20.70;9.73;;;;;;;22.98;69.52;100495.80;126349;1099;104153;-80
2021/07/11 05:22:40;;;;;;;17.97;9.07;;;;;;;23.14;69.42;100496.50;126360;1099;104229;-80
2021/07/11 05:25:12;;;;;;;18.10;8.17;;;;;;;23.27;69.02;100506.08;126358;1099;104251;-79
2021/07/11 05:27:43;;;;;;;15.97;8.53;;;;;;;23.39;69.32;100494.29;126273;1097;104144;-80
2021/07/11 05:30:15;;;;;;;18.43;8.97;;;;;;;23.44;68.86;100489.73;126320;1099;104274;-81
2021/07/11 05:32:46;;;;;;;19.03;9.20;;;;;;;23.47;68.61;100488.80;126333;1099;104238;-79
2021/07/11 05:35:17;;;;;;;21.53;9.27;;;;;;;23.46;68.25;100492.38;126348;1099;104277;-80
2021/07/11 05:37:47;;;;;;;19.67;8.90;;;;;;;23.45;68.11;100494.19;126310;1099;104194;-80
2021/07/11 05:40:18;;;;;;;17.13;8.63;;;;;;;23.49;67.96;100495.00;126251;1099;107924;-79
2021/07/11 05:42:50;;;;;;;17.20;8.53;;;;;;;23.53;68.17;100488.69;126334;1099;104153;-80
2021/07/11 05:45:21;;;;;;;18.90;8.90;;;;;;;23.55;67.62;100484.18;126329;1099;104268;-79
2021/07/11 05:47:52;;;;;;;18.85;9.05;;;;;;;23.64;68.00;100485.82;126361;1099;104143;-80
2021/07/11 05:50:23;;;;;;;17.87;8.63;;;;;;;23.68;67.55;100488.41;126318;1099;104140;-80
2021/07/11 05:52:53;;;;;;;18.80;9.37;;;;;;;23.72;67.46;100478.52;126353;1099;104147;-80
2021/07/11 05:55:24;;;;;;;15.40;8.20;;;;;;;23.77;67.39;100475.75;126320;1099;104280;-80
2021/07/11 05:57:55;;;;;;;16.93;8.53;;;;;;;23.80;67.17;100464.97;126336;1099;104601;-81
2021/07/11 06:00:26;;;;;;;18.40;8.87;;;;;;;23.83;67.26;100480.99;126311;1099;104137;-79
2021/07/11 06:02:56;;;;;;;20.47;9.67;;;;;;;23.85;66.80;100476.51;126318;1099;104146;-80
2021/07/11 06:05:28;;;;;;;17.03;8.93;;;;;;;23.87;66.72;100469.31;126335;1099;104303;-79
2021/07/11 06:07:59;;;;;;;19.30;8.83;;;;;;;23.87;66.75;100477.35;126345;1099;104184;-80
2021/07/11 06:10:30;;;;;;;19.87;8.77;;;;;;;23.86;66.22;100475.61;126309;1099;104570;-79
2021/07/11 06:13:01;;;;;;;22.07;9.40;;;;;;;23.86;66.65;100470.25;126353;1099;104143;-81
2021/07/11 06:15:32;;;;;;;16.70;9.23;;;;;;;23.85;66.53;100474.70;126300;1099;104156;-80
2021/07/11 06:18:03;;;;;;;19.10;9.53;;;;;;;23.90;66.49;100482.65;126281;1099;104268;-81
2021/07/11 06:20:34;;;;;;;18.67;8.47;;;;;;;23.97;66.43;100480.76;126281;1099;104146;-79
2021/07/11 06:23:07;;;;;;;19.87;9.23;;;;;;;24.06;66.27;100477.89;126338;1099;104261;-81
2021/07/11 06:25:38;;;;;;;17.10;9.30;;;;;;;24.16;66.40;100475.89;126350;1099;104146;-80
2021/07/11 06:28:10;;;;;;;23.83;10.27;;;;;;;24.28;65.81;100472.95;126344;1099;104245;-80
2021/07/11 06:30:40;;;;;;;18.00;9.30;;;;;;;24.40;65.92;100470.02;126238;1099;104169;-79
2021/07/11 06:33:11;;;;;;;18.73;9.33;;;;;;;24.56;66.04;100475.91;126313;1099;104145;-79
2021/07/11 06:35:41;;;;;;;22.30;9.60;;;;;;;24.72;65.88;100476.47;126353;1099;104172;-80
2021/07/11 06:38:12;;;;;;;17.73;9.27;;;;;;;24.87;66.11;100477.92;126393;1099;104634;-79
2021/07/11 06:40:43;;;;;;;20.43;9.57;;;;;;;25.02;65.46;100481.14;126300;1099;104284;-81
2021/07/11 06:43:13;;;;;;;18.10;9.00;;;;;;;25.15;65.49;100477.25;126263;1099;104312;-80
2021/07/11 06:45:44;;;;;;;20.57;9.80;;;;;;;25.34;65.54;100477.69;126356;1099;104139;-81
2021/07/11 06:48:15;;;;;;;19.83;9.43;;;;;;;25.56;65.28;100477.13;126345;1099;104162;-80
2021/07/11 06:50:46;;;;;;;22.03;10.30;;;;;;;25.79;65.40;100472.01;126318;1099;105333;-80
2021/07/11 06:53:16;;;;;;;18.33;9.60;;;;;;;26.01;64.22;100476.81;126332;1098;104223;-79
2021/07/11 06:55:47;;;;;;;21.20;10.23;;;;;;;26.15;64.58;100477.28;126341;1099;104329;-80
2021/07/11 06:58:18;;;;;;;18.40;10.07;;;;;;;26.31;64.12;100471.45;126332;1099;104220;-80
2021/07/11 07:00:49;;;;;;;19.73;10.50;;;;;;;26.50;64.19;100475.33;126297;1099;104150;-79
2021/07/11 07:03:20;;;;;;;20.60;10.17;;;;;;;26.69;63.79;100477.48;126358;1099;104166;-81
2021/07/11 07:05:50;;;;;;;20.60;10.60;;;;;;;26.95;63.24;100483.86;126373;1099;104271;-81
2021/07/11 07:08:23;;;;;;;19.77;9.87;;;;;;;27.16;63.35;100477.77;126277;1099;104208;-80
2021/07/11 07:10:53;;;;;;;;;;;;;;;27.38;61.69;100475.25;126369;1099;102050;-79
2021/07/11 07:13:24;;;;;;;19.40;10.20;;;;;;;27.56;62.55;100483.63;126331;1097;104169;-79
2021/07/11 07:15:54;;;;;;;19.90;10.57;;;;;;;27.69;61.69;100487.66;126335;1099;104160;-80
2021/07/11 07:18:25;;;;;;;21.27;10.60;;;;;;;27.74;61.24;100485.67;126354;1099;104318;-78
2021/07/11 07:20:56;;;;;;;19.20;10.27;;;;;;;27.81;60.93;100483.63;126286;1099;104312;-79
2021/07/11 07:23:27;;;;;;;19.40;10.33;;;;;;;27.88;60.20;100495.95;126373;1099;104194;-79
2021/07/11 07:25:57;;;;;;;17.77;10.30;;;;;;;27.93;60.30;100491.27;126309;1099;104373;-80
2021/07/11 07:28:30;;;;;;;19.83;9.90;;;;;;;28.04;60.15;100492.73;126381;1099;104152;-80
2021/07/11 07:31:00;;;;;;;21.03;10.50;;;;;;;28.13;59.91;100493.27;126305;1098;104172;-79
2021/07/11 07:33:31;;;;;;;18.95;9.85;;;;;;;28.24;60.08;100491.99;126319;1099;104322;-79
2021/07/11 07:36:04;;;;;;;21.33;10.77;;;;;;;28.30;59.56;100491.76;126335;1099;104137;-79
2021/07/11 07:38:36;;;;;;;17.30;10.43;;;;;;;28.36;59.64;100493.33;126305;1099;104140;-80
2021/07/11 07:41:07;;;;;;;18.07;10.23;;;;;;;28.46;58.86;100495.61;126282;1098;104143;-79
2021/07/11 07:43:38;;;;;;;19.30;10.07;;;;;;;28.59;58.95;100492.47;126385;1099;104867;-79
2021/07/11 07:46:09;;;;;;;18.73;10.33;;;;;;;28.73;58.37;100500.02;126279;1099;104243;-78
2021/07/11 07:48:39;;;;;;;23.37;9.63;;;;;;;28.86;57.17;100491.37;126327;1099;104149;-79
2021/07/11 07:51:11;;;;;;;18.67;9.33;;;;;;;28.98;56.67;100492.67;126267;1098;104155;-80
2021/07/11 07:53:42;;;;;;;16.77;9.37;;;;;;;29.12;56.55;100488.53;126337;1098;104701;-78
2021/07/11 07:56:12;;;;;;;21.27;10.13;;;;;;;29.25;56.21;100478.11;126365;1099;104280;-80
2021/07/11 07:58:43;;;;;;;15.37;8.37;;;;;;;29.37;55.78;100488.41;126358;1099;104176;-80
2021/07/11 08:01:14;;;;;;;16.40;9.00;;;;;;;29.52;54.58;100489.58;126218;1099;104188;-80
2021/07/11 08:03:44;;;;;;;20.33;9.03;;;;;;;29.62;54.75;100484.64;126338;1099;104169;-80
2021/07/11 08:06:15;;;;;;;17.97;9.30;;;;;;;29.78;53.97;100474.91;126346;1098;104136;-79
2021/07/11 08:08:45;;;;;;;17.37;8.40;;;;;;;29.87;54.10;100479.05;126357;1099;104287;-80
2021/07/11 08:11:17;;;;;;;15.43;8.93;;;;;;;30.03;53.69;100480.13;126273;1099;104319;-80
2021/07/11 08:13:47;;;;;;;16.83;8.47;;;;;;;30.20;52.57;100483.86;126330;1099;104306;-80
2021/07/11 08:16:18;;;;;;;16.07;8.10;;;;;;;30.35;52.63;100479.56;126354;1098;104179;-80
2021/07/11 08:18:51;;;;;;;14.60;8.23;;;;;;;30.56;51.59;100483.09;126365;1099;104185;-79
2021/07/11 08:21:22;;;;;;;16.93;8.00;;;;;;;30.70;51.27;100475.21;126257;1099;104239;-79
2021/07/11 08:23:53;;;;;;;13.87;7.50;;;;;;;30.87;50.50;100485.22;126225;1099;104310;-81
2021/07/11 08:26:24;;;;;;;17.10;8.43;;;;;;;30.98;49.38;100479.30;126322;1099;105308;-79
2021/07/11 08:28:54;;;;;;;13.47;7.87;;;;;;;31.07;49.30;100483.37;126270;1099;104181;-79
2021/07/11 08:31:25;;;;;;;13.53;7.33;;;;;;;31.21;48.98;100475.41;126303;1099;105270;-78
2021/07/11 08:33:56;;;;;;;12.90;7.27;;;;;;;31.36;48.32;100473.76;126270;1099;118490;-80
2021/07/11 08:36:28;;;;;;;12.70;7.27;;;;;;;31.42;48.26;100469.87;126313;1099;104149;-80
2021/07/11 08:38:59;;;;;;;12.23;7.07;;;;;;;31.51;47.76;100475.67;126371;1099;104152;-80
2021/07/11 08:41:29;;;;;;;10.47;6.63;;;;;;;31.56;47.39;100471.89;126366;1099;104142;-79
2021/07/11 08:44:02;;;;;;;13.20;7.27;;;;;;;31.59;46.78;100469.02;126338;1099;104249;-80
2021/07/11 08:46:32;;;;;;;13.20;6.77;;;;;;;31.64;47.24;100462.38;126362;1099;104174;-81
2021/07/11 08:49:03;;;;;;;14.80;7.40;;;;;;;31.67;46.68;100458.64;126361;1099;101751;-80
2021/07/11 08:51:33;;;;;;;14.27;6.67;;;;;;;31.78;46.66;100458.06;126380;1099;104213;-81
2021/07/11 08:54:04;;;;;;;11.70;7.13;;;;;;;31.82;45.49;100455.11;126295;1099;104156;-79
2021/07/11 08:56:35;;;;;;;12.40;6.90;;;;;;;31.86;44.69;100456.67;126364;1099;104144;-79
2021/07/11 08:59:06;;;;;;;11.87;7.10;;;;;;;31.93;45.17;100456.34;125395;1099;104165;-80
2021/07/11 09:01:36;;;;;;;12.23;7.40;;;;;;;31.95;45.19;100459.88;126368;1099;104165;-81
2021/07/11 09:04:12;;;;;;;15.63;7.60;;;;;;;31.95;44.90;100449.02;126263;1099;104236;-80
2021/07/11 09:06:45;;;;;;;13.80;7.37;;;;;;;31.97;44.95;100453.38;125421;1099;104204;-79
2021/07/11 09:09:25;;;;;;;16.90;7.30;;;;;;;31.98;44.10;100448.85;126390;1099;104245;-80
2021/07/11 09:12:01;;;;;;;13.53;6.63;;;;;;;31.89;44.54;100442.08;126350;1099;104293;-79
2021/07/11 09:14:34;;;;;;;12.63;6.87;;;;;;;31.89;44.28;100445.66;126257;1099;104136;-79
2021/07/11 09:17:07;;;;;;;14.70;7.10;;;;;;;31.99;43.51;100447.87;126328;1099;104149;-80
2021/07/11 09:19:41;;;;;;;13.13;6.83;;;;;;;32.10;43.72;100442.78;126334;1099;104201;-78
2021/07/11 09:22:14;;;;;;;13.13;7.60;;;;;;;32.20;42.55;100444.01;125369;1099;104281;-78
2021/07/11 09:24:53;;;;;;;13.53;6.97;;;;;;;32.20;42.99;100432.28;126266;1099;104181;-79
2021/07/11 09:27:25;;;;;;;13.13;7.30;;;;;;;32.23;42.35;100427.55;126284;1099;104214;-79
2021/07/11 09:30:00;;;;;;;14.33;7.25;;;;;;;32.23;42.44;100424.84;126337;1099;104172;-79
2021/07/11 09:32:33;;;;;;;14.60;7.63;;;;;;;32.23;42.46;100422.12;126295;1099;104123;-78
2021/07/11 09:35:09;;;;;;;;;;;;;;;32.24;41.83;100414.84;126346;1099;104239;-80
2021/07/11 09:37:42;;;;;;;14.77;7.70;;;;;;;32.28;42.46;100415.57;126253;1099;104274;-79
2021/07/11 09:40:14;;;;;;;;;;;;;;;32.34;41.29;100423.37;126328;1097;104201;-79
2021/07/11 09:42:47;;;;;;;12.73;7.43;;;;;;;32.35;41.88;100417.85;126342;1099;104175;-81
2021/07/11 09:45:20;;;;;;;13.17;7.57;;;;;;;32.20;42.08;100424.14;126252;1099;110515;-79
2021/07/11 09:47:52;;;;;;;16.57;7.87;;;;;;;32.03;42.17;100425.05;126321;1099;104168;-79
2021/07/11 09:50:25;;;;;;;14.73;7.50;;;;;;;31.78;42.16;100411.95;126364;1098;104162;-79
2021/07/11 09:52:58;;;;;;;13.58;7.25;;;;;;;31.53;42.39;100411.42;126324;1099;104185;-80
2021/07/11 09:55:31;;;;;;;14.90;7.30;;;;;;;31.29;42.04;100420.81;126325;1099;104286;-79
2021/07/11 09:58:03;;;;;;;13.45;7.40;;;;;;;31.11;42.54;100420.81;126362;1099;104143;-80
2021/07/11 10:00:36;;;;;;;14.93;7.00;;;;;;;30.89;42.47;100437.25;126366;1098;104139;-79
2021/07/11 10:03:10;;;;;;;12.90;7.55;;;;;;;30.69;42.89;100453.63;126327;1099;104168;-79
2021/07/11 10:05:42;;;;;;;13.97;7.40;;;;;;;30.35;43.83;100474.16;126239;1099;104159;-79
2021/07/11 10:08:13;;;;;;;18.77;6.80;;;;;;;29.90;44.51;100487.02;126336;1099;104218;-78
2021/07/11 10:10:44;;;;;;;19.33;6.17;;;;;;;29.10;43.98;100483.19;126329;1099;104238;-79
2021/07/11 10:13:14;;;;;;;11.50;4.73;;;;;;;28.31;44.15;100456.63;126356;1099;104150;-78
2021/07/11 10:15:45;;;;;;;11.13;5.73;;;;;;;27.85;44.94;100455.62;126322;1099;104137;-80
2021/07/11 10:18:20;;;;;;;16.23;6.10;;;;;;;27.53;45.21;100444.18;126323;1099;104293;-80
2021/07/11 10:20:57;;;;;;;14.03;6.03;;;;;;;27.21;46.35;100448.86;126381;1099;104226;-80
2021/07/11 10:23:33;;;;;;;11.47;6.13;;;;;;;26.88;46.98;100453.55;126335;1099;104149;-79
2021/07/11 10:26:07;;;;;;;13.70;6.70;;;;;;;26.53;48.12;100464.48;126248;1098;104171;-77
2021/07/11 10:28:40;;;;;;;13.30;6.83;;;;;;;26.28;48.34;100480.48;126342;1099;104149;-79
2021/07/11 10:31:23;;;;;;;16.13;6.67;;;;;;;26.09;48.56;100507.05;126321;1097;104137;-78
2021/07/11 10:33:56;;;;;;;10.78;6.15;;;;;;;25.91;48.96;100510.21;126269;1099;104146;-79
2021/07/11 10:36:30;;;;;;;;;;;;;;;25.67;51.81;100511.78;126361;1099;104144;-79
2021/07/11 10:39:01;;;;;;;14.07;7.37;;;;;;;25.46;51.07;100504.23;126360;1099;104270;-79
2021/07/11 10:41:33;;;;;;;14.93;6.73;;;;;;;25.25;51.97;100504.75;126328;1099;104313;-79
2021/07/11 10:44:07;;;;;;;12.63;7.23;;;;;;;25.07;52.14;100498.92;126235;1099;104337;-79
2021/07/11 10:46:41;;;;;;;12.37;6.43;;;;;;;25.00;51.96;100510.70;126257;1099;104174;-80
2021/07/11 10:49:17;;;;;;;10.00;6.00;;;;;;;25.01;51.90;100508.90;126335;1099;104191;-78
2021/07/11 10:51:50;;;;;;;12.03;6.30;;;;;;;25.02;52.18;100500.80;126385;1099;103185;-78
2021/07/11 10:54:27;;;;;;;11.12;6.65;;;;;;;25.05;52.65;100500.73;126299;1099;104142;-80
2021/07/11 10:57:00;;;;;;;12.53;6.67;;;;;;;25.14;52.79;100505.01;126366;1099;107988;-80
2021/07/11 10:59:32;;;;;;;;;;;;;;;25.19;52.42;100499.53;126353;1099;104300;-80
2021/07/11 11:02:07;;;;;;;10.70;5.50;;;;;;;25.25;53.15;100510.98;126311;1099;104149;-80
2021/07/11 11:04:38;;;;;;;15.00;5.87;;;;;;;25.29;53.15;100512.72;125418;1099;104140;-79
2021/07/11 11:07:20;;;;;;;9.77;5.73;;;;;;;25.28;53.46;100526.16;126272;1099;101911;-80
2021/07/11 11:09:51;;;;;;;8.77;5.17;;;;;;;25.23;53.52;100520.89;126313;1099;104259;-79
2021/07/11 11:12:25;;;;;;;10.43;4.97;;;;;;;25.14;53.50;100510.38;126316;1098;104179;-80
2021/07/11 11:14:59;;;;;;;11.77;5.33;;;;;;;25.14;53.39;100509.50;126365;1099;104177;-80
2021/07/11 11:17:32;;;;;;;;;;;;;;;25.19;53.45;100504.90;126406;1099;104152;-78
2021/07/11 11:20:08;;;;;;;11.75;5.50;;;;;;;25.29;53.35;100493.02;126360;1099;104158;-80
2021/07/11 11:22:39;;;;;;;10.70;5.40;;;;;;;25.45;53.65;100490.84;126333;1099;104147;-80
2021/07/11 11:25:10;;;;;;;10.23;5.20;;;;;;;25.59;53.62;100487.80;126350;1099;104219;-80